Time;durP1;ratioP1;P1;durP2;ratioP2;P2;SDS_P1;SDS_P2;PMS_P1;PMS_P2;Temp;Humidity;BMP_temperature;BMP_pressure;BME280_temperature;BME280_humidity;BME280_pressure;Samples;Min_cycle;Max_cycle;Signal;HPM_P1;HPM_P2
2021/07/07 00:00:11;;;;;;;6.90;1.67;;;17.50;98.10;;;;;;5106970;28;20028;-86
2021/07/07 00:02:36;;;;;;;7.50;1.80;;;17.40;98.10;;;;;;5107385;28;20024;-87
2021/07/07 00:05:04;;;;;;;8.00;1.60;;;17.40;98.10;;;;;;5108405;28;20031;-85
2021/07/07 00:07:30;;;;;;;5.30;1.57;;;17.40;98.20;;;;;;5107372;28;20019;-85
2021/07/07 00:09:56;;;;;;;4.15;1.60;;;17.40;98.20;;;;;;5106934;28;20031;-86
2021/07/07 00:12:22;;;;;;;4.30;1.33;;;17.40;98.50;;;;;;5107236;28;20062;-86
2021/07/07 00:14:48;;;;;;;5.55;1.60;;;17.40;98.30;;;;;;5107150;28;20127;-86
2021/07/07 00:17:13;;;;;;;7.53;1.80;;;17.30;98.20;;;;;;5097527;28;20538;-85
2021/07/07 00:19:39;;;;;;;7.57;1.75;;;17.30;98.30;;;;;;5093213;28;20032;-86
2021/07/07 00:22:04;;;;;;;4.53;1.60;;;17.30;98.40;;;;;;5093414;28;20396;-85
2021/07/07 00:24:30;;;;;;;5.88;1.90;;;17.30;98.40;;;;;;5094763;28;20055;-86
2021/07/07 00:26:56;;;;;;;7.63;1.77;;;17.30;98.40;;;;;;5094852;28;20042;-86
2021/07/07 00:29:22;;;;;;;6.03;1.58;;;17.30;98.30;;;;;;5094583;28;20108;-86
2021/07/07 00:31:47;;;;;;;4.78;1.80;;;17.30;98.40;;;;;;5094853;28;20042;-86
2021/07/07 00:34:13;;;;;;;5.95;1.77;;;17.20;98.40;;;;;;5094607;28;20016;-86
2021/07/07 00:36:39;;;;;;;6.20;2.00;;;17.20;98.50;;;;;;5093220;28;20236;-86
2021/07/07 00:39:04;;;;;;;4.70;1.92;;;17.20;98.50;;;;;;5092592;28;20021;-86
2021/07/07 00:41:30;;;;;;;5.18;1.58;;;17.20;98.50;;;;;;5094365;28;20031;-86
2021/07/07 00:43:56;;;;;;;5.85;1.75;;;17.20;98.50;;;;;;5092966;28;20472;-86
2021/07/07 00:46:22;;;;;;;4.93;1.60;;;17.20;98.50;;;;;;5094333;28;20042;-86
2021/07/07 00:48:48;;;;;;;5.50;2.13;;;17.10;98.60;;;;;;5092797;28;20494;-86
2021/07/07 00:51:14;;;;;;;4.63;1.80;;;17.10;98.60;;;;;;5092561;28;20016;-85
2021/07/07 00:53:41;;;;;;;4.93;1.50;;;17.10;98.70;;;;;;5092990;28;20028;-86
2021/07/07 00:56:11;;;;;;;4.95;1.73;;;17.10;98.60;;;;;;5092848;28;20028;-86
2021/07/07 00:58:37;;;;;;;5.03;1.88;;;17.10;98.60;;;;;;5094180;28;20054;-86
2021/07/07 01:01:07;;;;;;;6.70;2.13;;;17.10;98.70;;;;;;5093532;28;20380;-86
2021/07/07 01:03:33;;;;;;;5.47;1.90;;;17.10;98.60;;;;;;5094009;28;20468;-86
2021/07/07 01:06:00;;;;;;;4.68;1.90;;;17.00;98.60;;;;;;5092571;28;20496;-86
2021/07/07 01:08:26;;;;;;;5.93;1.92;;;17.00;98.70;;;;;;5093158;28;20058;-86
2021/07/07 01:10:53;;;;;;;5.63;1.60;;;17.00;98.70;;;;;;5093485;28;20059;-86
2021/07/07 01:13:19;;;;;;;6.30;1.67;;;16.90;98.70;;;;;;5092480;28;20020;-86
2021/07/07 01:15:45;;;;;;;4.93;1.80;;;16.90;98.80;;;;;;5093879;28;20027;-86
2021/07/07 01:18:11;;;;;;;6.10;1.67;;;16.90;98.80;;;;;;5092478;28;20028;-86
2021/07/07 01:20:39;;;;;;;6.78;2.13;;;16.90;98.80;;;;;;5091867;28;20024;-86
2021/07/07 01:23:06;;;;;;;3.65;1.92;;;16.90;98.80;;;;;;5093591;28;20023;-86
2021/07/07 01:25:33;;;;;;;4.60;1.67;;;16.80;98.80;;;;;;5093378;28;20024;-86
2021/07/07 01:28:02;;;;;;;4.75;1.60;;;16.90;98.90;;;;;;5091600;28;20443;-86
2021/07/07 01:30:28;;;;;;;4.95;1.67;;;16.80;98.90;;;;;;5092025;28;20020;-86
2021/07/07 01:32:54;;;;;;;4.53;1.70;;;16.80;98.80;;;;;;5092731;28;20016;-86
2021/07/07 01:35:21;;;;;;;5.35;1.88;;;16.80;98.80;;;;;;5092220;28;20387;-86
2021/07/07 01:37:48;;;;;;;4.68;1.75;;;16.80;98.90;;;;;;5092046;28;20024;-86
2021/07/07 01:40:19;;;;;;;8.40;1.92;;;16.80;98.90;;;;;;5091446;28;20051;-86
2021/07/07 01:42:45;;;;;;;5.85;1.70;;;16.80;98.90;;;;;;5092001;28;20024;-86
2021/07/07 01:45:12;;;;;;;7.53;1.73;;;16.80;98.90;;;;;;5091998;28;20059;-86
2021/07/07 01:47:38;;;;;;;4.07;1.92;;;16.80;98.80;;;;;;5093257;28;20058;-86
2021/07/07 01:50:06;;;;;;;3.65;1.50;;;16.80;98.90;;;;;;5092558;28;20166;-86
2021/07/07 01:52:32;;;;;;;4.60;1.60;;;16.70;98.80;;;;;;5091894;28;20478;-86
2021/07/07 01:54:58;;;;;;;5.18;1.48;;;16.70;98.90;;;;;;5091745;28;20152;-86
2021/07/07 01:57:24;;;;;;;5.55;1.52;;;16.70;99.00;;;;;;5091896;28;20027;-86
2021/07/07 01:59:49;;;;;;;5.10;1.70;;;16.70;99.00;;;;;;5092310;28;20099;-86
2021/07/07 02:02:15;;;;;;;6.25;1.70;;;16.60;98.90;;;;;;5091665;28;20082;-86
2021/07/07 02:04:41;;;;;;;7.07;1.67;;;16.60;98.90;;;;;;5091544;28;20397;-86
2021/07/07 02:07:06;;;;;;;4.80;1.50;;;16.60;98.90;;;;;;5091538;28;20078;-86
2021/07/07 02:09:32;;;;;;;5.40;1.70;;;16.60;99.00;;;;;;5090745;28;20464;-86
2021/07/07 02:11:58;;;;;;;5.32;2.00;;;16.60;99.10;;;;;;5091191;28;20024;-86
2021/07/07 02:14:23;;;;;;;6.97;1.88;;;16.60;98.90;;;;;;5090253;28;20510;-86
2021/07/07 02:16:49;;;;;;;5.15;1.92;;;16.60;98.90;;;;;;5090611;28;20031;-86
2021/07/07 02:19:14;;;;;;;8.55;2.10;;;16.70;98.70;;;;;;5091976;28;20407;-86
2021/07/07 02:21:40;;;;;;;5.28;2.00;;;16.70;98.70;;;;;;5092465;28;20020;-86
2021/07/07 02:24:06;;;;;;;7.18;2.20;;;16.70;98.70;;;;;;5091014;28;20487;-86
2021/07/07 02:26:32;;;;;;;4.55;2.05;;;16.70;98.80;;;;;;5091203;28;20070;-86
2021/07/07 02:28:58;;;;;;;6.28;2.00;;;16.70;98.70;;;;;;5091914;28;20035;-86
2021/07/07 02:31:24;;;;;;;4.28;1.90;;;16.60;98.70;;;;;;5091237;28;20020;-86
2021/07/07 02:33:49;;;;;;;4.75;2.50;;;16.70;98.70;;;;;;5090997;28;20024;-86
2021/07/07 02:36:15;;;;;;;6.47;2.40;;;16.70;98.70;;;;;;5090997;28;20020;-86
2021/07/07 02:38:41;;;;;;;6.63;2.58;;;16.60;98.70;;;;;;5092158;28;20020;-86
2021/07/07 02:41:06;;;;;;;5.47;2.30;;;16.60;98.70;;;;;;5090286;28;20039;-86
2021/07/07 02:43:32;;;;;;;8.40;2.60;;;16.60;98.70;;;;;;5091007;28;20426;-85
2021/07/07 02:45:58;;;;;;;6.88;2.30;;;16.60;98.70;;;;;;5092032;28;20028;-86
2021/07/07 02:48:24;;;;;;;8.40;2.55;;;16.60;98.80;;;;;;5090905;28;20028;-85
2021/07/07 02:50:50;;;;;;;6.85;2.42;;;16.60;98.70;;;;;;5091659;28;20049;-86
2021/07/07 02:53:17;;;;;;;11.43;2.70;;;16.60;98.80;;;;;;5090783;28;20032;-86
2021/07/07 02:55:43;;;;;;;7.05;2.55;;;16.60;98.80;;;;;;5090819;28;20040;-86
2021/07/07 02:58:09;;;;;;;9.02;2.80;;;16.60;98.80;;;;;;5092065;28;20028;-86
2021/07/07 03:00:41;;;;;;;6.43;2.45;;;16.60;98.80;;;;;;5090243;28;20032;-86
2021/07/07 03:03:12;;;;;;;6.85;2.75;;;16.60;98.80;;;;;;5092037;28;20028;-87
2021/07/07 03:05:40;;;;;;;8.65;2.92;;;16.60;98.80;;;;;;5090435;28;20047;-86
2021/07/07 03:08:07;;;;;;;8.77;2.95;;;16.60;98.80;;;;;;5091977;28;20448;-86
2021/07/07 03:10:32;;;;;;;8.52;2.50;;;16.60;98.90;;;;;;5091250;28;20465;-85
2021/07/07 03:12:58;;;;;;;5.35;2.03;;;16.50;98.90;;;;;;5092065;28;20032;-85
2021/07/07 03:15:25;;;;;;;8.23;2.47;;;16.50;98.90;;;;;;5091879;28;20439;-86
2021/07/07 03:17:52;;;;;;;7.95;2.70;;;16.50;99.00;;;;;;5090611;28;20115;-85
2021/07/07 03:20:18;;;;;;;7.60;2.50;;;16.50;99.00;;;;;;5091226;28;20146;-86
2021/07/07 03:22:44;;;;;;;6.88;2.50;;;16.50;99.00;;;;;;5090533;28;20070;-86
2021/07/07 03:25:10;;;;;;;6.72;2.45;;;16.50;99.00;;;;;;5090441;28;20036;-86
2021/07/07 03:27:36;;;;;;;7.45;2.55;;;16.50;99.00;;;;;;5091839;28;20449;-86
2021/07/07 03:30:05;;;;;;;7.90;2.40;;;16.50;99.10;;;;;;5089889;28;20025;-86
2021/07/07 03:32:30;;;;;;;6.68;2.60;;;16.40;99.10;;;;;;5089996;28;20024;-86
2021/07/07 03:34:56;;;;;;;10.15;2.95;;;16.40;99.20;;;;;;5091545;28;20084;-86
2021/07/07 03:37:22;;;;;;;9.05;2.80;;;16.40;99.20;;;;;;5090433;28;20089;-86
2021/07/07 03:39:48;;;;;;;8.98;3.20;;;16.50;99.20;;;;;;5091133;28;20035;-86
2021/07/07 03:42:13;;;;;;;6.05;2.40;;;16.50;99.10;;;;;;5090367;28;20024;-85
2021/07/07 03:44:39;;;;;;;8.30;2.67;;;16.50;99.10;;;;;;5091664;28;20029;-86
2021/07/07 03:47:05;;;;;;;7.65;2.70;;;16.40;99.00;;;;;;5091545;28;20489;-86
2021/07/07 03:49:30;;;;;;;8.10;2.58;;;16.40;99.10;;;;;;5091209;28;20388;-86
2021/07/07 03:51:56;;;;;;;7.93;2.40;;;16.40;99.20;;;;;;5093719;28;20077;-86
2021/07/07 03:54:24;;;;;;;5.57;2.35;;;16.40;99.20;;;;;;5095578;28;20060;-86
2021/07/07 03:56:51;;;;;;;9.50;2.65;;;16.50;99.20;;;;;;5094128;28;20027;-86
2021/07/07 03:59:17;;;;;;;4.78;2.25;;;16.50;99.10;;;;;;5094875;28;20025;-86
2021/07/07 04:01:42;;;;;;;8.10;3.03;;;16.60;99.10;;;;;;5094100;28;20481;-86
2021/07/07 04:04:08;;;;;;;8.55;2.70;;;16.50;99.00;;;;;;5093997;28;20035;-86
2021/07/07 04:06:35;;;;;;;8.30;2.80;;;16.60;99.10;;;;;;5094456;28;20024;-86
2021/07/07 04:09:01;;;;;;;7.05;2.30;;;16.50;99.00;;;;;;5095016;28;20016;-86
2021/07/07 04:11:26;;;;;;;9.98;2.63;;;16.60;99.10;;;;;;5103821;28;20110;-86
2021/07/07 04:13:52;;;;;;;5.70;2.63;;;16.60;99.10;;;;;;5118135;28;20083;-86
2021/07/07 04:16:18;;;;;;;8.35;2.72;;;16.50;99.10;;;;;;5119518;28;20024;-86
2021/07/07 04:18:44;;;;;;;7.50;2.95;;;16.50;99.10;;;;;;5117549;28;20043;-86
2021/07/07 04:21:10;;;;;;;7.40;2.47;;;16.60;99.00;;;;;;5115648;28;20012;-87
2021/07/07 04:23:35;;;;;;;6.93;2.50;;;16.60;98.90;;;;;;5118205;28;20039;-86
2021/07/07 04:26:01;;;;;;;9.55;2.67;;;16.70;98.90;;;;;;5109180;28;20472;-86
2021/07/07 04:28:27;;;;;;;9.27;2.50;;;16.70;98.90;;;;;;5094067;28;20032;-86
2021/07/07 04:30:52;;;;;;;7.47;2.33;;;16.80;98.90;;;;;;5093274;28;20024;-86
2021/07/07 04:33:18;;;;;;;9.07;1.98;;;16.80;98.80;;;;;;5093814;28;20392;-86
2021/07/07 04:35:43;;;;;;;7.90;2.45;;;16.90;98.70;;;;;;5095931;28;20498;-85
2021/07/07 04:38:09;;;;;;;9.48;2.58;;;16.90;98.70;;;;;;5097423;28;20095;-85
2021/07/07 04:40:35;;;;;;;6.80;2.58;;;16.90;98.60;;;;;;5100857;28;20106;-86
2021/07/07 04:43:00;;;;;;;6.80;2.25;;;17.00;98.60;;;;;;5107994;28;20039;-85
2021/07/07 04:45:26;;;;;;;6.57;2.20;;;17.00;98.50;;;;;;5115756;28;20020;-86
2021/07/07 04:47:53;;;;;;;6.13;2.33;;;17.00;98.50;;;;;;5113419;28;20028;-86
2021/07/07 04:50:19;;;;;;;7.07;2.28;;;17.10;98.50;;;;;;5115802;28;20217;-86
2021/07/07 04:52:45;;;;;;;6.43;2.33;;;17.10;98.50;;;;;;5115362;28;20028;-87
2021/07/07 04:55:12;;;;;;;8.93;2.20;;;17.10;98.60;;;;;;5116757;28;20028;-85
2021/07/07 04:57:41;;;;;;;9.45;3.05;;;17.20;98.70;;;;;;5110013;28;20441;-86
2021/07/07 05:00:27;;;;;;;7.07;2.28;;;17.20;98.70;;;;;;5093807;28;20035;-86
2021/07/07 05:02:52;;;;;;;7.82;2.60;;;17.20;98.70;;;;;;5092891;28;20058;-85
2021/07/07 05:05:20;;;;;;;8.45;2.45;;;17.20;98.80;;;;;;5092881;28;20032;-86
2021/07/07 05:07:47;;;;;;;8.07;2.50;;;17.20;98.80;;;;;;5094516;28;20020;-85
2021/07/07 05:10:14;;;;;;;8.90;2.38;;;17.30;98.90;;;;;;5092699;28;20496;-84
2021/07/07 05:12:40;;;;;;;7.80;2.65;;;17.30;98.90;;;;;;5094440;28;20023;-84
2021/07/07 05:15:07;;;;;;;7.28;2.60;;;17.30;98.90;;;;;;5093076;28;20031;-85
2021/07/07 05:17:32;;;;;;;9.35;2.90;;;17.40;99.00;;;;;;5092909;28;20024;-85
2021/07/07 05:19:58;;;;;;;7.55;2.80;;;17.40;98.90;;;;;;5094320;28;20077;-85
2021/07/07 05:22:24;;;;;;;11.48;3.45;;;17.50;98.80;;;;;;5094053;28;20024;-86
2021/07/07 05:24:50;;;;;;;13.18;3.55;;;17.50;98.70;;;;;;5093973;28;20035;-85
2021/07/07 05:27:20;;;;;;;12.27;2.97;;;17.60;98.70;;;;;;5093803;28;20024;-85
2021/07/07 05:29:48;;;;;;;11.75;2.75;;;17.70;98.70;;;;;;5075243;28;20059;-86
2021/07/07 05:32:21;;;;;;;11.02;2.47;;;17.70;98.50;;;;;;5093851;28;20032;-85
2021/07/07 05:34:52;;;;;;;9.70;2.70;;;17.80;98.60;;;;;;5093809;28;20023;-86
2021/07/07 05:37:22;;;;;;;9.80;3.35;;;17.90;98.50;;;;;;5092143;28;20024;-86
2021/07/07 05:39:52;;;;;;;9.27;3.00;;;17.90;98.30;;;;;;5092701;28;20488;-86
2021/07/07 05:42:21;;;;;;;9.60;3.13;;;18.00;98.30;;;;;;5093515;28;20043;-86
2021/07/07 05:45:11;;;;;;;6.18;2.25;;;18.10;98.30;;;;;;5093349;28;20022;-86
2021/07/07 05:47:50;;;;;;;10.27;2.83;;;18.10;98.20;;;;;;5089691;28;20451;-86
2021/07/07 05:50:18;;;;;;;8.13;2.83;;;18.20;98.00;;;;;;5091319;28;20028;-85
2021/07/07 05:52:43;;;;;;;8.35;3.15;;;18.20;97.90;;;;;;5093190;28;20354;-86
2021/07/07 05:55:13;;;;;;;7.25;2.25;;;18.20;97.90;;;;;;5092105;28;20127;-86
2021/07/07 05:57:39;;;;;;;9.75;2.63;;;18.20;98.00;;;;;;5092339;28;20020;-86
2021/07/07 06:00:09;;;;;;;9.25;3.17;;;18.20;98.10;;;;;;5092496;28;20412;-86
2021/07/07 06:02:35;;;;;;;9.10;2.83;;;18.20;98.10;;;;;;5093218;28;20511;-85
2021/07/07 06:05:00;;;;;;;7.38;2.75;;;18.20;98.10;;;;;;5092873;28;20028;-86
2021/07/07 06:07:26;;;;;;;7.55;2.60;;;18.20;98.30;;;;;;5093435;28;20512;-86
2021/07/07 06:09:51;;;;;;;8.18;2.22;;;18.30;98.40;;;;;;5093254;28;20020;-86
2021/07/07 06:12:17;;;;;;;13.23;2.72;;;18.30;98.20;;;;;;5091627;28;20020;-86
2021/07/07 06:14:42;;;;;;;7.78;2.45;;;18.30;98.10;;;;;;5092485;28;20059;-86
2021/07/07 06:17:08;;;;;;;6.97;2.20;;;18.40;98.20;;;;;;5091635;28;20024;-85
2021/07/07 06:19:34;;;;;;;7.30;2.40;;;18.40;98.00;;;;;;5092327;28;20027;-85
2021/07/07 06:22:01;;;;;;;7.35;2.30;;;18.50;98.00;;;;;;5092708;28;20032;-86
2021/07/07 06:24:27;;;;;;;8.23;2.55;;;18.50;98.30;;;;;;5092731;28;20019;-85
2021/07/07 06:26:53;;;;;;;6.85;2.42;;;18.50;98.10;;;;;;5092170;28;20438;-86
2021/07/07 06:29:19;;;;;;;11.88;3.05;;;18.60;97.90;;;;;;5090912;28;20024;-87
2021/07/07 06:31:45;;;;;;;7.30;2.55;;;18.60;97.80;;;;;;5091504;28;20111;-87
2021/07/07 06:34:11;;;;;;;6.47;1.88;;;18.70;97.70;;;;;;5091318;28;20046;-87
2021/07/07 06:36:37;;;;;;;8.40;2.50;;;18.70;97.60;;;;;;5091306;28;20059;-85
2021/07/07 06:39:03;;;;;;;7.03;2.20;;;18.70;97.50;;;;;;5092162;28;20016;-85
2021/07/07 06:41:29;;;;;;;8.40;2.60;;;18.80;97.50;;;;;;5092742;28;20024;-86
2021/07/07 06:43:54;;;;;;;9.40;2.78;;;18.80;97.00;;;;;;5091392;28;20047;-86
2021/07/07 06:46:20;;;;;;;6.13;2.40;;;18.80;97.00;;;;;;5093262;28;20024;-86
2021/07/07 06:48:46;;;;;;;6.45;2.10;;;18.80;97.40;;;;;;5091034;28;20020;-86
2021/07/07 06:51:13;;;;;;;6.03;1.88;;;18.80;97.10;;;;;;5092155;28;20476;-86
2021/07/07 06:53:39;;;;;;;5.45;2.03;;;18.80;97.00;;;;;;5091133;28;20024;-86
2021/07/07 06:56:05;;;;;;;6.43;2.33;;;18.80;97.10;;;;;;5090832;28;20438;-86
2021/07/07 06:58:30;;;;;;;10.82;2.70;;;18.90;97.20;;;;;;5091046;28;20499;-86
2021/07/07 07:00:57;;;;;;;5.93;2.17;;;18.90;97.10;;;;;;5090312;28;20037;-86
2021/07/07 07:03:22;;;;;;;7.00;2.00;;;18.90;97.20;;;;;;5092096;28;20503;-88
2021/07/07 07:05:48;;;;;;;8.35;2.30;;;18.90;97.60;;;;;;5090657;28;20036;-87
2021/07/07 07:08:16;;;;;;;7.13;2.20;;;18.90;97.30;;;;;;5090985;28;20027;-88
2021/07/07 07:10:42;;;;;;;5.20;2.00;;;18.90;97.40;;;;;;5091663;28;20024;-87
2021/07/07 07:13:07;;;;;;;8.60;2.15;;;18.90;97.50;;;;;;5091040;28;20365;-88
2021/07/07 07:15:33;;;;;;;6.70;1.83;;;18.90;97.30;;;;;;5091032;28;20536;-88
2021/07/07 07:17:59;;;;;;;5.53;2.15;;;18.90;96.50;;;;;;5092211;28;20032;-88
2021/07/07 07:20:26;;;;;;;6.80;2.35;;;18.90;96.80;;;;;;5090263;28;20056;-88
2021/07/07 07:22:52;;;;;;;5.10;2.20;;;18.90;97.10;;;;;;5090952;28;20032;-88
2021/07/07 07:25:17;;;;;;;6.35;2.47;;;19.00;97.30;;;;;;5092345;28;20450;-88
2021/07/07 07:27:43;;;;;;;8.20;2.72;;;19.00;97.20;;;;;;5094234;28;20036;-88
2021/07/07 07:30:10;;;;;;;11.38;3.45;;;19.10;97.00;;;;;;5095445;28;20484;-87
2021/07/07 07:32:36;;;;;;;8.80;2.53;;;19.10;96.90;;;;;;5094785;28;20050;-88
2021/07/07 07:35:02;;;;;;;7.82;2.30;;;19.10;96.70;;;;;;5095914;28;20469;-88
2021/07/07 07:38:30;;;;;;;8.90;2.28;;;19.20;96.70;;;;;;5094807;28;20430;-89
2021/07/07 07:40:35;;;;;;;9.52;3.20;;;19.20;96.60;;;;;;5094725;28;20036;-85
2021/07/07 07:43:03;;;;;;;7.53;2.20;;;19.30;96.50;;;;;;5094813;28;20111;-84
2021/07/07 07:45:28;;;;;;;7.70;2.38;;;19.30;96.50;;;;;;5094538;28;20511;-84
2021/07/07 07:47:54;;;;;;;8.30;2.42;;;19.30;96.40;;;;;;5094721;28;20020;-85
2021/07/07 07:50:20;;;;;;;7.90;2.20;;;19.30;96.30;;;;;;5094676;28;20020;-85
2021/07/07 07:52:46;;;;;;;6.38;2.53;;;19.40;96.40;;;;;;5094522;28;20020;-86
2021/07/07 07:55:12;;;;;;;7.57;2.78;;;19.40;96.00;;;;;;5094132;28;20028;-86
2021/07/07 07:57:39;;;;;;;8.10;2.45;;;19.40;96.10;;;;;;5094173;28;20020;-87
2021/07/07 08:00:22;;;;;;;6.15;2.30;;;19.40;95.70;;;;;;5093847;28;20370;-86
2021/07/07 08:02:48;;;;;;;6.07;2.38;;;19.50;95.80;;;;;;5094182;28;20036;-85
2021/07/07 08:05:15;;;;;;;5.25;1.92;;;19.50;95.90;;;;;;5094069;28;20028;-84
2021/07/07 08:07:42;;;;;;;8.85;2.35;;;19.50;95.70;;;;;;5095739;28;20016;-84
2021/07/07 08:10:10;;;;;;;5.03;2.20;;;19.60;95.50;;;;;;5094209;28;20024;-88
2021/07/07 08:12:36;;;;;;;8.70;2.17;;;19.60;95.40;;;;;;5094363;28;20027;-84
2021/07/07 08:15:03;;;;;;;7.57;2.25;;;19.60;95.90;;;;;;5094148;28;20094;-88
2021/07/07 08:17:29;;;;;;;10.00;2.58;;;19.60;95.50;;;;;;5095650;28;20027;-88
2021/07/07 08:19:55;;;;;;;7.18;2.35;;;19.70;95.20;;;;;;5093755;28;20476;-88
2021/07/07 08:22:20;;;;;;;9.30;2.60;;;19.70;95.30;;;;;;5093835;28;20580;-88
2021/07/07 08:24:46;;;;;;;10.20;2.50;;;19.70;95.60;;;;;;5093948;28;20115;-87
2021/07/07 08:27:12;;;;;;;8.60;2.15;;;19.80;95.00;;;;;;5095169;28;20020;-86
2021/07/07 08:29:38;;;;;;;6.97;2.33;;;19.80;94.70;;;;;;5093384;28;20039;-88
2021/07/07 08:32:05;;;;;;;6.20;2.25;;;19.90;94.10;;;;;;5093348;28;20031;-89
2021/07/07 08:34:32;;;;;;;7.93;2.25;;;19.90;93.90;;;;;;5093755;28;20427;-88
2021/07/07 08:36:58;;;;;;;5.45;2.15;;;19.90;93.90;;;;;;5094179;28;20420;-88
2021/07/07 08:39:24;;;;;;;8.70;2.55;;;19.90;93.90;;;;;;5094359;28;20024;-88
2021/07/07 08:41:51;;;;;;;7.72;2.05;;;20.00;93.80;;;;;;5093543;28;20442;-88
2021/07/07 08:44:17;;;;;;;8.13;2.35;;;20.00;94.00;;;;;;5093680;28;20024;-88
2021/07/07 08:46:43;;;;;;;8.00;2.20;;;20.10;94.00;;;;;;5093548;28;20080;-88
2021/07/07 08:49:09;;;;;;;6.75;2.53;;;20.10;94.10;;;;;;5093035;28;20036;-88
2021/07/07 08:51:40;;;;;;;5.10;1.88;;;20.10;94.10;;;;;;5093337;28;20028;-88
2021/07/07 08:54:07;;;;;;;7.53;2.28;;;20.10;94.50;;;;;;5094531;28;20098;-88
2021/07/07 08:56:32;;;;;;;7.28;3.50;;;20.10;94.00;;;;;;5093285;28;20485;-89
2021/07/07 08:58:58;;;;;;;11.40;3.13;;;20.10;93.90;;;;;;5092630;28;20060;-88
2021/07/07 09:01:23;;;;;;;7.78;2.30;;;20.20;94.10;;;;;;5093394;28;20054;-88
2021/07/07 09:03:50;;;;;;;5.88;1.85;;;20.20;94.30;;;;;;5093275;28;20107;-88
2021/07/07 09:06:19;;;;;;;10.80;2.65;;;20.30;93.70;;;;;;5092978;28;20035;-86
2021/07/07 09:08:47;;;;;;;10.95;2.20;;;20.30;93.50;;;;;;5094190;28;20028;-86
2021/07/07 09:11:16;;;;;;;9.18;2.33;;;20.40;93.40;;;;;;5092577;28;20032;-86
2021/07/07 09:13:44;;;;;;;10.18;4.30;;;20.40;93.70;;;;;;5092741;28;20024;-86
2021/07/07 09:16:11;;;;;;;8.40;2.50;;;20.50;93.60;;;;;;5092649;28;20374;-86
2021/07/07 09:18:38;;;;;;;7.72;2.00;;;20.60;93.20;;;;;;5092638;28;20024;-86
2021/07/07 09:21:22;;;;;;;6.60;1.80;;;20.60;92.50;;;;;;5091983;28;20506;-86
2021/07/07 09:23:48;;;;;;;7.30;2.22;;;20.70;92.10;;;;;;5092657;28;20043;-86
2021/07/07 09:26:13;;;;;;;9.68;2.00;;;20.80;91.60;;;;;;5094014;28;20385;-86
2021/07/07 09:28:42;;;;;;;6.95;2.10;;;20.80;91.40;;;;;;5092575;28;20024;-86
2021/07/07 09:31:34;;;;;;;5.78;1.90;;;20.80;91.30;;;;;;5091756;28;20222;-87
2021/07/07 09:34:19;;;;;;;5.43;1.80;;;20.80;91.40;;;;;;5093603;28;20100;-86
2021/07/07 09:36:48;;;;;;;6.45;2.00;;;20.90;91.60;;;;;;5093544;28;20024;-86
2021/07/07 09:39:15;;;;;;;4.65;1.85;;;20.80;91.60;;;;;;5094001;28;20025;-86
2021/07/07 09:41:41;;;;;;;8.27;1.90;;;20.80;91.60;;;;;;5094116;28;20020;-86
2021/07/07 09:44:07;;;;;;;6.75;1.90;;;20.70;91.60;;;;;;5092506;28;20021;-86
2021/07/07 09:46:38;;;;;;;9.32;2.20;;;20.80;91.40;;;;;;5091958;28;20028;-89
2021/07/07 09:49:04;;;;;;;5.05;1.67;;;20.80;90.90;;;;;;5090930;28;20099;-89
2021/07/07 09:51:32;;;;;;;5.32;1.60;;;20.80;90.60;;;;;;5092193;28;20016;-89
2021/07/07 09:54:05;;;;;;;6.40;1.60;;;20.80;90.40;;;;;;5092334;28;20119;-84
2021/07/07 09:56:33;;;;;;;4.97;1.60;;;20.80;90.20;;;;;;5092033;28;20503;-85
2021/07/07 09:58:59;;;;;;;5.35;1.80;;;20.80;90.40;;;;;;5092268;28;20075;-85
2021/07/07 10:01:25;;;;;;;11.13;2.10;;;20.80;89.80;;;;;;5093592;28;20035;-84
2021/07/07 10:03:52;;;;;;;6.80;2.33;;;20.90;90.00;;;;;;5092034;28;20028;-85
2021/07/07 10:06:18;;;;;;;6.80;2.17;;;21.00;88.90;;;;;;5091939;28;20419;-84
2021/07/07 10:08:45;;;;;;;5.47;1.98;;;21.10;89.50;;;;;;5093248;28;20210;-85
2021/07/07 10:11:11;;;;;;;8.43;1.83;;;21.10;90.10;;;;;;5093319;28;20043;-84
2021/07/07 10:13:38;;;;;;;5.60;1.77;;;21.30;90.30;;;;;;5093197;28;20100;-86
2021/07/07 10:16:04;;;;;;;7.07;1.85;;;21.30;90.10;;;;;;5092954;28;20036;-85
2021/07/07 10:18:32;;;;;;;5.88;1.73;;;21.40;88.70;;;;;;5091817;28;20025;-84
2021/07/07 10:21:04;;;;;;;6.47;2.13;;;21.40;88.40;;;;;;5091864;28;20051;-85
2021/07/07 10:23:32;;;;;;;5.88;1.80;;;21.30;87.30;;;;;;5093079;28;20058;-85
2021/07/07 10:26:01;;;;;;;6.45;1.90;;;21.30;87.90;;;;;;5091736;28;20392;-84
2021/07/07 10:28:27;;;;;;;6.00;1.70;;;21.30;86.80;;;;;;5092960;28;20059;-84
2021/07/07 10:30:58;;;;;;;9.15;2.00;;;21.30;87.20;;;;;;5091581;28;20073;-84
2021/07/07 10:33:31;;;;;;;7.43;1.92;;;21.40;86.70;;;;;;5092930;28;20024;-85
2021/07/07 10:36:32;;;;;;;9.43;2.10;;;21.40;86.20;;;;;;5092796;28;20016;-84
2021/07/07 10:39:01;;;;;;;9.15;1.85;;;21.30;87.10;;;;;;5073478;28;20500;-84
2021/07/07 10:41:45;;;;;;;7.18;1.80;;;21.30;85.50;;;;;;5087801;28;20362;-85
2021/07/07 10:44:40;;;;;;;6.45;1.90;;;21.30;85.60;;;;;;5091384;28;20028;-85
2021/07/07 10:47:11;;;;;;;9.48;2.58;;;21.30;85.80;;;;;;5088561;28;20576;-88
2021/07/07 10:49:42;;;;;;;7.10;1.70;;;21.40;86.30;;;;;;5091392;28;20032;-84
2021/07/07 10:52:14;;;;;;;5.97;1.83;;;21.50;85.10;;;;;;5091294;28;20027;-85
2021/07/07 10:54:41;;;;;;;7.28;1.60;;;21.60;84.10;;;;;;5091491;28;20027;-85
2021/07/07 10:57:09;;;;;;;6.30;1.52;;;21.70;82.50;;;;;;5091337;28;20032;-84
2021/07/07 10:59:37;;;;;;;7.60;1.92;;;21.80;82.20;;;;;;5091405;28;20106;-85
2021/07/07 11:02:07;;;;;;;6.95;1.77;;;21.70;80.80;;;;;;5090962;28;20031;-84
2021/07/07 11:04:38;;;;;;;6.10;1.70;;;21.80;81.20;;;;;;5091337;28;20024;-84
2021/07/07 11:07:32;;;;;;;4.50;1.42;;;21.70;81.00;;;;;;5091079;28;20024;-85
2021/07/07 11:10:05;;;;;;;4.57;1.60;;;21.80;80.50;;;;;;5092326;28;20074;-86
2021/07/07 11:12:37;;;;;;;4.95;1.60;;;21.70;81.20;;;;;;5092879;28;20024;-85
2021/07/07 11:15:06;;;;;;;4.47;1.70;;;21.60;80.90;;;;;;5091029;28;20020;-84
2021/07/07 11:17:36;;;;;;;5.60;1.65;;;21.60;80.60;;;;;;5091045;28;20021;-88
2021/07/07 11:20:06;;;;;;;7.90;1.83;;;21.70;80.50;;;;;;5091418;28;20028;-88
2021/07/07 11:22:32;;;;;;;4.60;1.50;;;21.60;81.70;;;;;;5092262;28;20016;-87
2021/07/07 11:25:03;;;;;;;4.28;1.40;;;21.70;81.30;;;;;;5091247;28;20080;-88
2021/07/07 11:27:29;;;;;;;3.15;1.30;;;21.60;81.70;;;;;;5092479;28;20043;-88
2021/07/07 11:29:54;;;;;;;7.30;2.15;;;21.60;82.80;;;;;;5091754;28;20021;-88
2021/07/07 11:32:37;;;;;;;6.05;1.77;;;21.50;83.00;;;;;;5092264;28;20370;-89
2021/07/07 11:35:08;;;;;;;8.27;1.92;;;21.60;82.50;;;;;;5074720;28;20039;-88
2021/07/07 11:37:34;;;;;;;6.20;1.50;;;21.60;83.30;;;;;;5091460;28;20430;-88
2021/07/07 11:40:09;;;;;;;4.55;1.90;;;21.70;83.10;;;;;;5090482;28;20388;-88
2021/07/07 11:42:50;;;;;;;5.95;1.77;;;21.80;83.00;;;;;;5092068;28;20024;-89
2021/07/07 11:45:20;;;;;;;5.47;1.80;;;21.90;83.20;;;;;;5092559;28;20081;-88
2021/07/07 11:47:57;;;;;;;4.53;1.40;;;21.90;82.60;;;;;;5091140;28;20028;-89
2021/07/07 11:50:23;;;;;;;5.30;1.45;;;21.90;81.70;;;;;;5091993;28;20055;-88
2021/07/07 11:52:54;;;;;;;4.25;1.60;;;22.00;81.70;;;;;;5091109;28;20024;-89
2021/07/07 11:55:48;;;;;;;5.05;1.73;;;22.00;81.70;;;;;;5091254;28;20073;-88
2021/07/07 11:58:24;;;;;;;6.43;1.83;;;22.00;82.40;;;;;;5090879;28;20028;-88
2021/07/07 12:00:52;;;;;;;7.05;1.80;;;22.00;82.00;;;;;;5090556;28;20186;-88
2021/07/07 12:03:20;;;;;;;9.05;2.13;;;22.00;82.00;;;;;;5092430;28;20144;-89
2021/07/07 12:06:05;;;;;;;5.20;1.40;;;22.00;80.70;;;;;;5091123;28;20066;-88
2021/07/07 12:08:40;;;;;;;4.22;1.50;;;22.10;79.70;;;;;;5091432;28;20031;-87
2021/07/07 12:11:12;;;;;;;6.72;2.00;;;22.20;78.50;;;;;;5090999;28;20438;-88
2021/07/07 12:13:43;;;;;;;6.75;2.08;;;22.30;78.90;;;;;;5094371;28;20024;-88
2021/07/07 12:16:22;;;;;;;6.50;1.80;;;22.30;78.70;;;;;;5095718;28;20066;-88
2021/07/07 12:18:53;;;;;;;5.72;1.85;;;22.40;79.60;;;;;;5095554;28;20058;-88
2021/07/07 12:21:22;;;;;;;3.80;1.55;;;22.40;80.40;;;;;;5096111;28;20016;-89
2021/07/07 12:23:55;;;;;;;6.15;1.80;;;22.50;80.00;;;;;;5094702;28;20024;-87
2021/07/07 12:26:27;;;;;;;4.07;1.50;;;22.70;78.50;;;;;;5094576;28;20084;-89
2021/07/07 12:28:55;;;;;;;5.45;1.48;;;22.80;78.30;;;;;;5095684;28;20035;-84
2021/07/07 12:31:21;;;;;;;7.75;1.92;;;22.90;75.70;;;;;;5095877;28;20484;-88
2021/07/07 12:33:52;;;;;;;5.63;1.75;;;23.00;76.80;;;;;;5094220;28;20096;-89
2021/07/07 12:36:23;;;;;;;5.38;1.90;;;22.90;77.20;;;;;;5094145;28;20032;-86
2021/07/07 12:38:49;;;;;;;5.95;1.27;;;23.00;76.70;;;;;;5093754;28;20021;-87
2021/07/07 12:41:15;;;;;;;4.25;1.50;;;23.10;74.40;;;;;;5094851;28;20016;-86
2021/07/07 12:43:58;;;;;;;4.07;1.60;;;23.20;74.90;;;;;;5095306;28;20024;-86
2021/07/07 12:46:24;;;;;;;6.38;1.75;;;23.40;73.60;;;;;;5094191;28;20400;-86
2021/07/07 12:48:51;;;;;;;5.00;2.00;;;23.60;72.90;;;;;;5093498;28;20135;-86